KISO/ISO METAR and TAF weather

Enter ICAO airport designator
Station Type Date Time Source
KISO METAR 2021/09/16 20:56 UTC NOAA

KISO 162056Z 09005KT 10SM SCT023 BKN029 OVC070 26/22 A3003


Station Type Date Time Source
KISO Decoded METAR 2021/09/16 20:56 UTC NOAA

Kinston, Kinston Regional Jetport at Stallings Field, NC, United States (KISO) 35-20N 077-37W
Sep 16, 2021 - 04:56 PM EDT / 2021.09.16 2056 UTC
Wind: from the E (090 degrees) at 6 MPH (5 KT):0
Visibility: 10 mile(s):0
Sky conditions: overcast
Temperature: 78 F (26 C)
Dew Point: 71 F (22 C)
Relative Humidity: 78%
Pressure (altimeter): 30.03 in. Hg (1016 hPa)
ob: KISO 162056Z 09005KT 10SM SCT023 BKN029 OVC070 26/22 A3003
cycle: 21

Station Type Date Time Source
KISO TAF 2021/09/16 18:24 UTC NOAA

TAF KISO 161723Z 1618/1718 04007KT P6SM SCT050
FM170600 36005KT P6SM BKN015
FM170800 01006KT P6SM BKN008
FM171400 02008KT P6SM BKN010
FM171700 02009KT P6SM BKN030
AMD LTD TO CLD VIS AND WIND

Example: see airport list